sensor_id;sensor_type;location;lat;lon;timestamp;pressure;altitude;pressure_sealevel;temperature;humidity
61109;BME280;46995;55.740;37.402;2023-03-21T00:00:01;99088.69;;;3.92;60.33
61109;BME280;46995;55.740;37.402;2023-03-21T00:02:27;99100.06;;;4.03;60.47
61109;BME280;46995;55.740;37.402;2023-03-21T00:04:53;99086.69;;;3.95;60.19
61109;BME280;46995;55.740;37.402;2023-03-21T00:07:19;99122.38;;;4.21;60.32
61109;BME280;46995;55.740;37.402;2023-03-21T00:09:44;99093.06;;;4.04;60.55
61109;BME280;46995;55.740;37.402;2023-03-21T00:12:10;99104.16;;;4.07;60.45
61109;BME280;46995;55.740;37.402;2023-03-21T00:14:37;99111.63;;;4.13;60.63
61109;BME280;46995;55.740;37.402;2023-03-21T00:17:03;99056.47;;;3.78;60.29
61109;BME280;46995;55.740;37.402;2023-03-21T00:19:29;99075.94;;;3.87;60.79
61109;BME280;46995;55.740;37.402;2023-03-21T00:21:55;99070.25;;;3.93;60.64
61109;BME280;46995;55.740;37.402;2023-03-21T00:24:22;99112.13;;;4.18;60.63
61109;BME280;46995;55.740;37.402;2023-03-21T00:30:58;99066.72;;;3.94;60.32
61109;BME280;46995;55.740;37.402;2023-03-21T00:37:22;99056.81;;;3.99;60.61
61109;BME280;46995;55.740;37.402;2023-03-21T00:39:59;99087.78;;;4.18;60.39
61109;BME280;46995;55.740;37.402;2023-03-21T00:42:25;99075.97;;;4.12;60.35
61109;BME280;46995;55.740;37.402;2023-03-21T00:44:51;99054.19;;;3.99;60.69
61109;BME280;46995;55.740;37.402;2023-03-21T00:47:17;99068.44;;;4.08;60.49
61109;BME280;46995;55.740;37.402;2023-03-21T00:49:43;99022.59;;;3.77;60.86
61109;BME280;46995;55.740;37.402;2023-03-21T00:55:26;99091.44;;;4.28;60.76
61109;BME280;46995;55.740;37.402;2023-03-21T00:57:53;99079.22;;;4.29;60.88
61109;BME280;46995;55.740;37.402;2023-03-21T01:00:20;99070.50;;;4.15;60.88
61109;BME280;46995;55.740;37.402;2023-03-21T01:02:46;99076.59;;;4.29;61.26
61109;BME280;46995;55.740;37.402;2023-03-21T01:05:26;99060.69;;;4.19;61.08
61109;BME280;46995;55.740;37.402;2023-03-21T01:08:12;99074.69;;;4.31;60.93
61109;BME280;46995;55.740;37.402;2023-03-21T01:10:40;99068.84;;;4.27;60.93
61109;BME280;46995;55.740;37.402;2023-03-21T01:13:08;99067.41;;;4.23;60.72
61109;BME280;46995;55.740;37.402;2023-03-21T01:15:34;99058.91;;;4.19;61.05
61109;BME280;46995;55.740;37.402;2023-03-21T01:18:01;99056.00;;;4.11;60.76
61109;BME280;46995;55.740;37.402;2023-03-21T01:20:28;99057.75;;;4.11;61.36
61109;BME280;46995;55.740;37.402;2023-03-21T01:22:54;99029.53;;;3.91;60.89
61109;BME280;46995;55.740;37.402;2023-03-21T01:25:21;99052.44;;;4.12;61.43
61109;BME280;46995;55.740;37.402;2023-03-21T01:27:47;99036.44;;;4.04;61.14
61109;BME280;46995;55.740;37.402;2023-03-21T01:30:13;99044.28;;;4.04;61.14
61109;BME280;46995;55.740;37.402;2023-03-21T01:32:39;99056.50;;;4.16;61.28
61109;BME280;46995;55.740;37.402;2023-03-21T01:35:05;99026.38;;;3.98;61.03
61109;BME280;46995;55.740;37.402;2023-03-21T01:37:31;99032.25;;;4.02;61.38
61109;BME280;46995;55.740;37.402;2023-03-21T01:39:57;99026.19;;;4.01;61.33
61109;BME280;46995;55.740;37.402;2023-03-21T01:42:23;99035.59;;;4.04;61.32
61109;BME280;46995;55.740;37.402;2023-03-21T01:45:02;99035.59;;;4.04;61.43
61109;BME280;46995;55.740;37.402;2023-03-21T01:47:52;99035.50;;;4.05;60.97
61109;BME280;46995;55.740;37.402;2023-03-21T01:50:32;99054.22;;;4.12;61.22
61109;BME280;46995;55.740;37.402;2023-03-21T01:53:23;99052.97;;;4.17;61.11
61109;BME280;46995;55.740;37.402;2023-03-21T01:56:00;99032.88;;;4.05;61.29
61109;BME280;46995;55.740;37.402;2023-03-21T01:59:04;98997.31;;;3.77;61.17
61109;BME280;46995;55.740;37.402;2023-03-21T02:02:03;99046.28;;;4.13;61.43
61109;BME280;46995;55.740;37.402;2023-03-21T02:04:37;98998.16;;;3.78;61.39
61109;BME280;46995;55.740;37.402;2023-03-21T02:07:29;99053.16;;;4.14;61.24
61109;BME280;46995;55.740;37.402;2023-03-21T02:10:04;99028.06;;;3.99;61.27
61109;BME280;46995;55.740;37.402;2023-03-21T02:12:34;98996.28;;;3.80;61.56
61109;BME280;46995;55.740;37.402;2023-03-21T02:15:02;99001.53;;;3.80;61.43
61109;BME280;46995;55.740;37.402;2023-03-21T02:27:16;99022.13;;;3.97;61.78
61109;BME280;46995;55.740;37.402;2023-03-21T02:36:29;99027.66;;;4.05;61.81
61109;BME280;46995;55.740;37.402;2023-03-21T02:45:48;99036.66;;;4.01;61.61
61109;BME280;46995;55.740;37.402;2023-03-21T02:48:21;99004.22;;;3.78;61.38
61109;BME280;46995;55.740;37.402;2023-03-21T02:50:54;99004.44;;;3.75;62.11
61109;BME280;46995;55.740;37.402;2023-03-21T02:53:37;98984.78;;;3.70;61.72
61109;BME280;46995;55.740;37.402;2023-03-21T02:56:06;99026.09;;;3.90;61.74
61109;BME280;46995;55.740;37.402;2023-03-21T02:58:37;99003.28;;;3.79;61.73
61109;BME280;46995;55.740;37.402;2023-03-21T03:01:06;98993.16;;;3.75;61.41
61109;BME280;46995;55.740;37.402;2023-03-21T03:03:58;98970.28;;;3.66;61.41
61109;BME280;46995;55.740;37.402;2023-03-21T03:06:48;98956.78;;;3.59;61.70
61109;BME280;46995;55.740;37.402;2023-03-21T03:12:20;98999.22;;;3.88;61.44
61109;BME280;46995;55.740;37.402;2023-03-21T03:17:48;98950.09;;;3.55;61.50
61109;BME280;46995;55.740;37.402;2023-03-21T03:20:26;98995.88;;;3.86;61.42
61109;BME280;46995;55.740;37.402;2023-03-21T03:25:36;98941.31;;;3.44;60.95
61109;BME280;46995;55.740;37.402;2023-03-21T03:28:05;98999.84;;;3.79;60.92
61109;BME280;46995;55.740;37.402;2023-03-21T03:30:35;98953.22;;;3.48;60.75
61109;BME280;46995;55.740;37.402;2023-03-21T03:33:04;99005.91;;;3.79;61.00
61109;BME280;46995;55.740;37.402;2023-03-21T03:35:32;98971.63;;;3.59;60.89
61109;BME280;46995;55.740;37.402;2023-03-21T03:38:01;98999.94;;;3.77;60.89
61109;BME280;46995;55.740;37.402;2023-03-21T03:40:40;98953.84;;;3.51;60.52
61109;BME280;46995;55.740;37.402;2023-03-21T03:43:38;98969.00;;;3.59;60.52
61109;BME280;46995;55.740;37.402;2023-03-21T03:46:16;98961.47;;;3.54;60.48
61109;BME280;46995;55.740;37.402;2023-03-21T03:49:08;98946.31;;;3.47;60.75
61109;BME280;46995;55.740;37.402;2023-03-21T03:51:58;98936.09;;;3.44;60.82
61109;BME280;46995;55.740;37.402;2023-03-21T03:54:37;98901.91;;;3.21;60.67
61109;BME280;46995;55.740;37.402;2023-03-21T03:57:04;98917.91;;;3.29;60.24
61109;BME280;46995;55.740;37.402;2023-03-21T03:59:35;98984.56;;;3.73;60.41
61109;BME280;46995;55.740;37.402;2023-03-21T04:02:16;98972.28;;;3.75;60.17
61109;BME280;46995;55.740;37.402;2023-03-21T04:04:42;98970.28;;;3.66;59.85
61109;BME280;46995;55.740;37.402;2023-03-21T04:07:08;98973.41;;;3.71;59.85
61109;BME280;46995;55.740;37.402;2023-03-21T04:09:36;98950.72;;;3.59;60.00
61109;BME280;46995;55.740;37.402;2023-03-21T04:12:02;98971.34;;;3.76;59.82
61109;BME280;46995;55.740;37.402;2023-03-21T04:14:29;98979.16;;;3.76;59.38
61109;BME280;46995;55.740;37.402;2023-03-21T04:16:56;98940.28;;;3.59;59.24
61109;BME280;46995;55.740;37.402;2023-03-21T04:19:23;98911.88;;;3.41;59.22
61109;BME280;46995;55.740;37.402;2023-03-21T04:21:49;98934.44;;;3.55;59.00
61109;BME280;46995;55.740;37.402;2023-03-21T04:24:16;98942.50;;;3.65;59.09
61109;BME280;46995;55.740;37.402;2023-03-21T04:26:43;98962.25;;;3.81;59.21
61109;BME280;46995;55.740;37.402;2023-03-21T04:29:32;98950.63;;;3.73;58.65
61109;BME280;46995;55.740;37.402;2023-03-21T04:32:21;98958.59;;;3.84;58.79
61109;BME280;46995;55.740;37.402;2023-03-21T04:35:25;98984.91;;;4.06;59.01
61109;BME280;46995;55.740;37.402;2023-03-21T04:37:57;98972.06;;;4.03;58.90
61109;BME280;46995;55.740;37.402;2023-03-21T04:40:23;98971.44;;;4.12;58.41
61109;BME280;46995;55.740;37.402;2023-03-21T04:42:50;98984.38;;;4.26;58.34
61109;BME280;46995;55.740;37.402;2023-03-21T04:45:16;98962.22;;;4.19;58.09
61109;BME280;46995;55.740;37.402;2023-03-21T04:47:44;98958.66;;;4.20;58.59
61109;BME280;46995;55.740;37.402;2023-03-21T04:50:11;98978.31;;;4.39;58.49
61109;BME280;46995;55.740;37.402;2023-03-21T04:52:44;98957.81;;;4.33;58.63
61109;BME280;46995;55.740;37.402;2023-03-21T04:55:10;98960.97;;;4.38;58.85
61109;BME280;46995;55.740;37.402;2023-03-21T04:57:38;98973.88;;;4.52;58.73
61109;BME280;46995;55.740;37.402;2023-03-21T05:00:07;98950.69;;;4.35;58.49
61109;BME280;46995;55.740;37.402;2023-03-21T05:02:36;98957.81;;;4.33;58.81
61109;BME280;46995;55.740;37.402;2023-03-21T05:05:02;98969.41;;;4.41;58.97
61109;BME280;46995;55.740;37.402;2023-03-21T05:07:29;98969.50;;;4.40;59.35
61109;BME280;46995;55.740;37.402;2023-03-21T05:09:56;98960.97;;;4.38;58.90
61109;BME280;46995;55.740;37.402;2023-03-21T05:12:22;98964.28;;;4.40;59.13
61109;BME280;46995;55.740;37.402;2023-03-21T05:14:49;98955.00;;;4.36;59.18
61109;BME280;46995;55.740;37.402;2023-03-21T05:17:15;98957.19;;;4.42;59.34
61109;BME280;46995;55.740;37.402;2023-03-21T05:19:48;98951.34;;;4.38;59.30
61109;BME280;46995;55.740;37.402;2023-03-21T05:22:15;98945.28;;;4.38;59.21
61109;BME280;46995;55.740;37.402;2023-03-21T05:24:44;98969.25;;;4.55;59.43
61109;BME280;46995;55.740;37.402;2023-03-21T05:27:28;98955.06;;;4.47;59.36
61109;BME280;46995;55.740;37.402;2023-03-21T05:30:08;98968.22;;;4.58;59.30
61109;BME280;46995;55.740;37.402;2023-03-21T05:32:35;98951.81;;;4.56;59.27
61109;BME280;46995;55.740;37.402;2023-03-21T05:35:02;98964.03;;;4.68;59.41
61109;BME280;46995;55.740;37.402;2023-03-21T05:37:29;98958.56;;;4.71;59.64
61109;BME280;46995;55.740;37.402;2023-03-21T05:39:55;98943.19;;;4.66;59.43
61109;BME280;46995;55.740;37.402;2023-03-21T05:42:26;98961.47;;;4.79;59.31
61109;BME280;46995;55.740;37.402;2023-03-21T05:44:53;98946.72;;;4.78;58.72
61109;BME280;46995;55.740;37.402;2023-03-21T05:47:24;98941.38;;;4.80;58.86
61109;BME280;46995;55.740;37.402;2023-03-21T05:49:52;98968.72;;;4.99;58.63
61109;BME280;46995;55.740;37.402;2023-03-21T05:52:19;98936.56;;;4.86;58.90
61109;BME280;46995;55.740;37.402;2023-03-21T05:54:45;98941.31;;;4.92;58.79
61109;BME280;46995;55.740;37.402;2023-03-21T05:57:11;98955.31;;;5.04;58.74
61109;BME280;46995;55.740;37.402;2023-03-21T06:00:00;98962.59;;;5.11;58.43
61109;BME280;46995;55.740;37.402;2023-03-21T06:02:29;98959.16;;;5.11;58.80
61109;BME280;46995;55.740;37.402;2023-03-21T06:05:00;98959.84;;;5.13;58.83
61109;BME280;46995;55.740;37.402;2023-03-21T06:07:26;98946.06;;;5.11;58.69
61109;BME280;46995;55.740;37.402;2023-03-21T06:09:52;98943.56;;;5.09;58.46
61109;BME280;46995;55.740;37.402;2023-03-21T06:12:18;98940.88;;;5.22;58.44
61109;BME280;46995;55.740;37.402;2023-03-21T06:14:59;98952.25;;;5.34;58.52
61109;BME280;46995;55.740;37.402;2023-03-21T06:17:43;98937.09;;;5.26;58.47
61109;BME280;46995;55.740;37.402;2023-03-21T06:20:12;98915.25;;;5.15;58.57
61109;BME280;46995;55.740;37.402;2023-03-21T06:22:43;98951.41;;;5.33;58.66
61109;BME280;46995;55.740;37.402;2023-03-21T06:25:09;98920.28;;;5.18;58.96
61109;BME280;46995;55.740;37.402;2023-03-21T06:27:39;98933.53;;;5.27;59.03
61109;BME280;46995;55.740;37.402;2023-03-21T06:30:06;98921.47;;;5.25;59.03
61109;BME280;46995;55.740;37.402;2023-03-21T06:32:39;98938.56;;;5.41;59.03
61109;BME280;46995;55.740;37.402;2023-03-21T06:35:10;98947.06;;;5.56;58.86
61109;BME280;46995;55.740;37.402;2023-03-21T06:37:37;98919.06;;;5.45;59.13
61109;BME280;46995;55.740;37.402;2023-03-21T06:40:04;98923.00;;;5.51;59.27
61109;BME280;46995;55.740;37.402;2023-03-21T06:42:31;98897.41;;;5.43;59.30
61109;BME280;46995;55.740;37.402;2023-03-21T06:45:05;98912.34;;;5.65;59.31
61109;BME280;46995;55.740;37.402;2023-03-21T06:47:31;98906.97;;;5.67;59.59
61109;BME280;46995;55.740;37.402;2023-03-21T06:49:58;98870.91;;;5.70;59.35
61109;BME280;46995;55.740;37.402;2023-03-21T06:52:24;98887.09;;;5.86;59.38
61109;BME280;46995;55.740;37.402;2023-03-21T06:54:52;98884.50;;;5.97;59.78
61109;BME280;46995;55.740;37.402;2023-03-21T06:57:20;98917.63;;;6.43;58.75
61109;BME280;46995;55.740;37.402;2023-03-21T06:59:47;98912.69;;;6.61;57.86
61109;BME280;46995;55.740;37.402;2023-03-21T07:02:21;98877.31;;;6.44;58.59
61109;BME280;46995;55.740;37.402;2023-03-21T07:05:08;98856.31;;;6.44;59.72
61109;BME280;46995;55.740;37.402;2023-03-21T07:07:35;98872.03;;;6.66;59.16
61109;BME280;46995;55.740;37.402;2023-03-21T07:10:01;98887.00;;;6.75;59.57
61109;BME280;46995;55.740;37.402;2023-03-21T07:12:33;98882.69;;;6.86;59.84
61109;BME280;46995;55.740;37.402;2023-03-21T07:15:17;98893.44;;;6.82;60.93
61109;BME280;46995;55.740;37.402;2023-03-21T07:17:44;98909.34;;;7.02;59.81
61109;BME280;46995;55.740;37.402;2023-03-21T07:20:11;98895.34;;;6.80;61.83
61109;BME280;46995;55.740;37.402;2023-03-21T07:22:37;98900.66;;;6.69;62.12
61109;BME280;46995;55.740;37.402;2023-03-21T07:25:04;98893.84;;;6.67;63.40
61109;BME280;46995;55.740;37.402;2023-03-21T07:27:35;98890.75;;;6.62;62.99
61109;BME280;46995;55.740;37.402;2023-03-21T07:30:03;98873.25;;;6.51;64.64
61109;BME280;46995;55.740;37.402;2023-03-21T07:32:33;98877.19;;;6.57;64.71
61109;BME280;46995;55.740;37.402;2023-03-21T07:35:01;98883.47;;;6.65;64.70
61109;BME280;46995;55.740;37.402;2023-03-21T07:37:28;98893.44;;;6.82;64.98
61109;BME280;46995;55.740;37.402;2023-03-21T07:39:55;98863.34;;;6.87;65.80
61109;BME280;46995;55.740;37.402;2023-03-21T07:42:23;98881.66;;;7.09;65.08
61109;BME280;46995;55.740;37.402;2023-03-21T07:44:53;98859.56;;;7.11;65.01
61109;BME280;46995;55.740;37.402;2023-03-21T07:47:22;98875.59;;;7.29;65.04
61109;BME280;46995;55.740;37.402;2023-03-21T07:49:48;98871.03;;;7.31;64.61
61109;BME280;46995;55.740;37.402;2023-03-21T07:52:15;98845.47;;;7.12;64.66
61109;BME280;46995;55.740;37.402;2023-03-21T07:54:41;98846.50;;;7.21;65.00
61109;BME280;46995;55.740;37.402;2023-03-21T07:57:07;98878.88;;;7.42;64.40
61109;BME280;46995;55.740;37.402;2023-03-21T07:59:35;98866.69;;;7.41;64.41
61109;BME280;46995;55.740;37.402;2023-03-21T08:02:04;98868.53;;;7.50;64.38
61109;BME280;46995;55.740;37.402;2023-03-21T08:04:38;98877.25;;;7.72;63.88
61109;BME280;46995;55.740;37.402;2023-03-21T08:07:08;98852.25;;;7.56;64.08
61109;BME280;46995;55.740;37.402;2023-03-21T08:09:34;98814.09;;;7.11;64.88
61109;BME280;46995;55.740;37.402;2023-03-21T08:12:02;98866.63;;;7.52;64.75
61109;BME280;46995;55.740;37.402;2023-03-21T08:14:28;98874.97;;;7.88;63.50
61109;BME280;46995;55.740;37.402;2023-03-21T08:16:54;98831.03;;;7.69;64.30
61109;BME280;46995;55.740;37.402;2023-03-21T08:19:20;98876.00;;;8.06;63.41
61109;BME280;46995;55.740;37.402;2023-03-21T08:21:47;98840.16;;;7.95;63.48
61109;BME280;46995;55.740;37.402;2023-03-21T08:24:15;98853.06;;;8.08;63.74
61109;BME280;46995;55.740;37.402;2023-03-21T08:26:41;98832.00;;;8.08;63.54
61109;BME280;46995;55.740;37.402;2023-03-21T08:29:08;98816.34;;;7.97;62.78
61109;BME280;46995;55.740;37.402;2023-03-21T08:31:34;98842.38;;;8.00;63.40
61109;BME280;46995;55.740;37.402;2023-03-21T08:34:01;98848.78;;;7.77;64.18
61109;BME280;46995;55.740;37.402;2023-03-21T08:36:27;98836.78;;;7.53;64.82
61109;BME280;46995;55.740;37.402;2023-03-21T08:38:53;98878.91;;;7.73;64.42
61109;BME280;46995;55.740;37.402;2023-03-21T08:41:22;98808.97;;;7.30;64.53
61109;BME280;46995;55.740;37.402;2023-03-21T08:43:50;98880.31;;;7.77;65.44
61109;BME280;46995;55.740;37.402;2023-03-21T08:46:16;98871.50;;;7.87;64.41
61109;BME280;46995;55.740;37.402;2023-03-21T08:48:42;98858.59;;;8.05;64.97
61109;BME280;46995;55.740;37.402;2023-03-21T08:51:08;98829.91;;;8.02;63.71
61109;BME280;46995;55.740;37.402;2023-03-21T08:53:33;98833.41;;;8.12;63.72
61109;BME280;46995;55.740;37.402;2023-03-21T08:55:59;98834.25;;;8.22;62.96
61109;BME280;46995;55.740;37.402;2023-03-21T08:58:26;98850.69;;;8.35;63.88
61109;BME280;46995;55.740;37.402;2023-03-21T09:00:52;98840.16;;;8.35;63.86
61109;BME280;46995;55.740;37.402;2023-03-21T09:03:18;98827.69;;;8.37;63.21
61109;BME280;46995;55.740;37.402;2023-03-21T09:05:44;98815.53;;;8.46;63.16
61109;BME280;46995;55.740;37.402;2023-03-21T09:08:11;98833.00;;;8.57;62.60
61109;BME280;46995;55.740;37.402;2023-03-21T09:10:40;98861.28;;;8.74;63.12
61109;BME280;46995;55.740;37.402;2023-03-21T09:13:05;98819.13;;;8.45;63.31
61109;BME280;46995;55.740;37.402;2023-03-21T09:15:40;98801.13;;;8.40;63.01
61109;BME280;46995;55.740;37.402;2023-03-21T09:18:06;98793.94;;;8.42;62.78
61109;BME280;46995;55.740;37.402;2023-03-21T09:20:45;98822.19;;;8.50;63.64
61109;BME280;46995;55.740;37.402;2023-03-21T09:23:14;98801.00;;;8.42;62.83
61109;BME280;46995;55.740;37.402;2023-03-21T09:25:40;98809.44;;;8.45;62.72
61109;BME280;46995;55.740;37.402;2023-03-21T09:28:07;98814.16;;;8.52;62.73
61109;BME280;46995;55.740;37.402;2023-03-21T09:30:34;98807.63;;;8.36;62.83
61109;BME280;46995;55.740;37.402;2023-03-21T09:33:02;98834.91;;;8.35;63.74
61109;BME280;46995;55.740;37.402;2023-03-21T09:35:31;98815.41;;;8.17;64.00
61109;BME280;46995;55.740;37.402;2023-03-21T09:38:01;98828.69;;;8.36;63.76
61109;BME280;46995;55.740;37.402;2023-03-21T09:43:42;98790.59;;;8.40;63.57
61109;BME280;46995;55.740;37.402;2023-03-21T09:46:26;98761.25;;;8.35;63.03
61109;BME280;46995;55.740;37.402;2023-03-21T09:49:30;98823.31;;;8.86;62.80
61109;BME280;46995;55.740;37.402;2023-03-21T09:51:58;98828.03;;;8.92;62.32
61109;BME280;46995;55.740;37.402;2023-03-21T09:54:32;98797.28;;;8.83;62.39
61109;BME280;46995;55.740;37.402;2023-03-21T09:57:04;98789.91;;;8.86;61.84
61109;BME280;46995;55.740;37.402;2023-03-21T09:59:37;98787.03;;;8.89;61.45
61109;BME280;46995;55.740;37.402;2023-03-21T10:02:36;98822.22;;;8.98;61.56
61109;BME280;46995;55.740;37.402;2023-03-21T10:05:23;98823.47;;;8.94;61.72
61109;BME280;46995;55.740;37.402;2023-03-21T10:08:15;98819.00;;;8.85;61.79
61109;BME280;46995;55.740;37.402;2023-03-21T10:10:50;98820.25;;;8.71;61.88
61109;BME280;46995;55.740;37.402;2023-03-21T10:13:41;98774.06;;;8.19;62.33
61109;BME280;46995;55.740;37.402;2023-03-21T10:16:14;98805.53;;;8.30;62.73
61109;BME280;46995;55.740;37.402;2023-03-21T10:22:01;98748.28;;;8.13;62.44
61109;BME280;46995;55.740;37.402;2023-03-21T10:24:28;98778.69;;;8.36;62.19
61109;BME280;46995;55.740;37.402;2023-03-21T10:26:56;98748.72;;;8.18;61.99
61109;BME280;46995;55.740;37.402;2023-03-21T10:29:28;98763.13;;;8.24;61.77
61109;BME280;46995;55.740;37.402;2023-03-21T10:31:57;98790.84;;;8.37;61.91
61109;BME280;46995;55.740;37.402;2023-03-21T10:34:40;98759.84;;;8.31;61.25
61109;BME280;46995;55.740;37.402;2023-03-21T10:37:10;98789.91;;;8.48;60.72
61109;BME280;46995;55.740;37.402;2023-03-21T10:39:38;98741.22;;;8.14;60.75
61109;BME280;46995;55.740;37.402;2023-03-21T10:42:04;98753.97;;;8.08;61.28
61109;BME280;46995;55.740;37.402;2023-03-21T10:44:33;98793.84;;;8.14;61.95
61109;BME280;46995;55.740;37.402;2023-03-21T10:47:07;98768.06;;;7.98;61.94
61109;BME280;46995;55.740;37.402;2023-03-21T10:49:35;98725.66;;;7.72;62.16
61109;BME280;46995;55.740;37.402;2023-03-21T10:52:04;98732.16;;;7.78;61.70
61109;BME280;46995;55.740;37.402;2023-03-21T10:54:32;98769.31;;;8.03;60.84
61109;BME280;46995;55.740;37.402;2023-03-21T10:57:12;98754.19;;;7.96;60.32
61109;BME280;46995;55.740;37.402;2023-03-21T11:02:28;98779.72;;;8.24;59.04
61109;BME280;46995;55.740;37.402;2023-03-21T11:04:55;98778.66;;;8.27;59.02
61109;BME280;46995;55.740;37.402;2023-03-21T11:07:27;98746.50;;;8.14;58.91
61109;BME280;46995;55.740;37.402;2023-03-21T11:09:59;98728.75;;;8.06;59.16
61109;BME280;46995;55.740;37.402;2023-03-21T11:12:36;98749.84;;;8.25;58.88
61109;BME280;46995;55.740;37.402;2023-03-21T11:15:28;98766.22;;;8.48;56.80
61109;BME280;46995;55.740;37.402;2023-03-21T11:17:56;98750.59;;;8.37;56.25
61109;BME280;46995;55.740;37.402;2023-03-21T11:20:28;98749.63;;;8.47;55.13
61109;BME280;46995;55.740;37.402;2023-03-21T11:22:55;98737.69;;;8.53;54.91
61109;BME280;46995;55.740;37.402;2023-03-21T11:25:41;98723.28;;;8.67;53.77
61109;BME280;46995;55.740;37.402;2023-03-21T11:28:20;98723.84;;;8.70;52.30
61109;BME280;46995;55.740;37.402;2023-03-21T11:30:54;98760.38;;;9.02;51.66
61109;BME280;46995;55.740;37.402;2023-03-21T11:33:22;98762.84;;;9.13;51.81
61109;BME280;46995;55.740;37.402;2023-03-21T11:36:03;98758.75;;;9.38;51.07
61109;BME280;46995;55.740;37.402;2023-03-21T11:38:33;98712.91;;;9.31;50.90
61109;BME280;46995;55.740;37.402;2023-03-21T11:41:01;98726.53;;;9.54;50.25
61109;BME280;46995;55.740;37.402;2023-03-21T11:43:36;98716.38;;;9.59;49.54
61109;BME280;46995;55.740;37.402;2023-03-21T11:46:05;98743.81;;;9.66;50.44
61109;BME280;46995;55.740;37.402;2023-03-21T11:48:41;98739.72;;;9.54;50.00
61109;BME280;46995;55.740;37.402;2023-03-21T11:51:28;98728.69;;;9.41;50.73
61109;BME280;46995;55.740;37.402;2023-03-21T11:57:39;98696.50;;;9.37;49.06
61109;BME280;46995;55.740;37.402;2023-03-21T12:00:17;98722.34;;;9.61;49.12
61109;BME280;46995;55.740;37.402;2023-03-21T12:05:36;98689.88;;;9.33;48.28
61109;BME280;46995;55.740;37.402;2023-03-21T12:16:07;98677.03;;;9.48;47.35
61109;BME280;46995;55.740;37.402;2023-03-21T12:19:00;98664.50;;;9.59;46.97
61109;BME280;46995;55.740;37.402;2023-03-21T12:21:50;98678.00;;;9.74;46.78
61109;BME280;46995;55.740;37.402;2023-03-21T12:24:45;98707.81;;;10.02;47.67
61109;BME280;46995;55.740;37.402;2023-03-21T12:33:43;98656.31;;;13.18;40.82
61109;BME280;46995;55.740;37.402;2023-03-21T12:36:24;98689.16;;;14.71;38.28
61109;BME280;46995;55.740;37.402;2023-03-21T12:39:26;98631.31;;;15.25;37.13
61109;BME280;46995;55.740;37.402;2023-03-21T12:44:42;98639.38;;;15.46;35.64
61109;BME280;46995;55.740;37.402;2023-03-21T12:47:20;98648.50;;;14.48;37.33
61109;BME280;46995;55.740;37.402;2023-03-21T12:50:43;98661.88;;;13.78;38.46
61109;BME280;46995;55.740;37.402;2023-03-21T12:52:56;98653.44;;;14.05;38.13
61109;BME280;46995;55.740;37.402;2023-03-21T12:55:28;98673.94;;;15.02;36.46
61109;BME280;46995;55.740;37.402;2023-03-21T12:58:10;98608.44;;;15.45;35.78
61109;BME280;46995;55.740;37.402;2023-03-21T13:00:47;98641.97;;;16.26;33.89
61109;BME280;46995;55.740;37.402;2023-03-21T13:03:19;98659.78;;;16.89;33.19
61109;BME280;46995;55.740;37.402;2023-03-21T13:05:51;98655.66;;;17.15;33.55
61109;BME280;46995;55.740;37.402;2023-03-21T13:08:30;98652.28;;;17.34;32.79
61109;BME280;46995;55.740;37.402;2023-03-21T13:11:02;98612.00;;;17.29;32.09
61109;BME280;46995;55.740;37.402;2023-03-21T13:16:21;98619.28;;;17.48;31.99
61109;BME280;46995;55.740;37.402;2023-03-21T13:19:02;98658.09;;;17.78;31.04
61109;BME280;46995;55.740;37.402;2023-03-21T13:24:27;98661.94;;;17.63;31.38
61109;BME280;46995;55.740;37.402;2023-03-21T13:29:53;98667.16;;;15.88;33.71
61109;BME280;46995;55.740;37.402;2023-03-21T13:32:40;98628.66;;;15.10;33.78
61109;BME280;46995;55.740;37.402;2023-03-21T13:35:13;98674.81;;;14.80;34.68
61109;BME280;46995;55.740;37.402;2023-03-21T13:38:04;98674.00;;;14.57;36.20
61109;BME280;46995;55.740;37.402;2023-03-21T13:40:39;98640.22;;;13.97;35.24
61109;BME280;46995;55.740;37.402;2023-03-21T13:46:05;98627.78;;;13.20;36.74
61109;BME280;46995;55.740;37.402;2023-03-21T13:51:07;98608.53;;;12.38;37.62
61109;BME280;46995;55.740;37.402;2023-03-21T13:58:56;98652.22;;;12.58;38.59
61109;BME280;46995;55.740;37.402;2023-03-21T14:01:33;98640.44;;;12.04;38.53
61109;BME280;46995;55.740;37.402;2023-03-21T14:09:06;98621.69;;;10.72;40.30
61109;BME280;46995;55.740;37.402;2023-03-21T14:11:33;98607.06;;;10.34;41.22
61109;BME280;46995;55.740;37.402;2023-03-21T14:14:00;98591.25;;;9.98;41.67
61109;BME280;46995;55.740;37.402;2023-03-21T14:16:28;98621.22;;;9.97;41.71
61109;BME280;46995;55.740;37.402;2023-03-21T14:18:59;98658.59;;;10.20;42.04
61109;BME280;46995;55.740;37.402;2023-03-21T14:21:31;98611.59;;;9.88;41.99
61109;BME280;46995;55.740;37.402;2023-03-21T14:26:26;98629.28;;;9.96;41.64
61109;BME280;46995;55.740;37.402;2023-03-21T14:29:07;98655.06;;;10.02;41.72
61109;BME280;46995;55.740;37.402;2023-03-21T14:31:36;98634.50;;;9.88;42.02
61109;BME280;46995;55.740;37.402;2023-03-21T14:34:05;98637.66;;;9.91;41.81
61109;BME280;46995;55.740;37.402;2023-03-21T14:36:32;98645.66;;;9.99;41.87
61109;BME280;46995;55.740;37.402;2023-03-21T14:39:29;98610.53;;;9.81;41.75
61109;BME280;46995;55.740;37.402;2023-03-21T14:42:01;98629.34;;;9.86;41.86
61109;BME280;46995;55.740;37.402;2023-03-21T14:44:39;98630.25;;;9.77;42.91
61109;BME280;46995;55.740;37.402;2023-03-21T14:47:15;98641.84;;;9.84;42.29
61109;BME280;46995;55.740;37.402;2023-03-21T14:49:42;98600.72;;;9.56;42.72
61109;BME280;46995;55.740;37.402;2023-03-21T14:52:25;98604.75;;;9.50;42.55
61109;BME280;46995;55.740;37.402;2023-03-21T14:54:52;98624.72;;;9.53;42.54
61109;BME280;46995;55.740;37.402;2023-03-21T14:57:23;98590.31;;;9.27;42.45
61109;BME280;46995;55.740;37.402;2023-03-21T14:59:52;98554.03;;;8.93;42.42
61109;BME280;46995;55.740;37.402;2023-03-21T15:02:26;98613.50;;;9.23;42.52
61109;BME280;46995;55.740;37.402;2023-03-21T15:04:57;98642.94;;;9.46;42.49
61109;BME280;46995;55.740;37.402;2023-03-21T15:07:49;98540.94;;;8.84;42.48